createdAt,value
2023-03-03T00:00:59.866Z,56.78
2023-03-03T00:03:27.587Z,63.40
2023-03-03T00:05:54.881Z,66.60
2023-03-03T00:08:23.208Z,59.55
2023-03-03T00:10:50.689Z,54.78
2023-03-03T00:13:19.460Z,52.80
2023-03-03T00:15:47.372Z,54.65
2023-03-03T00:18:36.528Z,54.75
2023-03-03T00:21:14.738Z,49.53
2023-03-03T00:23:43.450Z,47.22
2023-03-03T00:26:20.735Z,54.10
2023-03-03T00:28:53.151Z,46.17
2023-03-03T00:31:31.734Z,50.30
2023-03-03T00:34:20.298Z,50.17
2023-03-03T00:36:52.048Z,59.65
2023-03-03T00:39:22.245Z,54.25
2023-03-03T00:41:49.737Z,65.80
2023-03-03T00:44:35.055Z,53.10
2023-03-03T00:47:30.048Z,55.25
2023-03-03T00:50:07.333Z,49.50
2023-03-03T00:52:38.016Z,49.10
2023-03-03T00:55:06.474Z,49.28
2023-03-03T00:57:33.871Z,56.95
2023-03-03T01:00:01.733Z,50.67
2023-03-03T01:02:31.243Z,50.63
2023-03-03T01:04:58.579Z,55.03
2023-03-03T01:07:25.914Z,57.13
2023-03-03T01:09:53.119Z,56.20
2023-03-03T01:12:21.060Z,55.78
2023-03-03T01:14:49.456Z,56.97
2023-03-03T01:17:17.508Z,47.80
2023-03-03T01:19:44.647Z,53.90
2023-03-03T01:22:11.779Z,56.92
2023-03-03T01:24:38.900Z,45.50
2023-03-03T01:27:06.103Z,50.08
2023-03-03T01:29:33.258Z,46.08
2023-03-03T01:32:00.473Z,51.10
2023-03-03T01:34:27.663Z,47.65
2023-03-03T01:36:56.180Z,46.10
2023-03-03T01:39:23.386Z,45.70
2023-03-03T01:41:50.831Z,55.50
2023-03-03T01:44:19.729Z,46.30
2023-03-03T01:47:08.289Z,46.78
2023-03-03T01:49:41.765Z,46.78
2023-03-03T01:52:34.854Z,50.08
2023-03-03T01:55:10.332Z,52.97
2023-03-03T01:57:44.180Z,45.30
2023-03-03T02:00:13.904Z,49.50
2023-03-03T02:02:43.259Z,44.42
2023-03-03T02:05:12.692Z,55.28
2023-03-03T02:07:40.128Z,55.58
2023-03-03T02:10:08.761Z,56.67
2023-03-03T02:12:52.174Z,55.53
2023-03-03T02:15:33.116Z,61.20
2023-03-03T02:18:05.956Z,56.10
2023-03-03T02:21:10.118Z,57.92
2023-03-03T02:24:04.997Z,59.60
2023-03-03T02:26:37.061Z,60.63
2023-03-03T02:29:07.823Z,58.88
2023-03-03T02:31:35.576Z,61.17
2023-03-03T02:34:02.762Z,74.45
2023-03-03T02:36:36.768Z,65.65
2023-03-03T02:39:14.463Z,65.32
2023-03-03T02:42:00.991Z,57.22
2023-03-03T02:47:06.145Z,54.85
2023-03-03T02:49:36.093Z,59.70
2023-03-03T02:52:10.019Z,63.78
2023-03-03T02:54:40.144Z,60.67
2023-03-03T02:57:09.133Z,73.68
2023-03-03T02:59:38.821Z,68.20
2023-03-03T03:02:11.087Z,67.85
2023-03-03T03:04:38.290Z,67.38
2023-03-03T03:07:06.632Z,56.60
2023-03-03T03:09:37.458Z,59.50
2023-03-03T03:12:05.755Z,59.58
2023-03-03T03:14:37.239Z,59.03
2023-03-03T03:17:07.268Z,61.15
2023-03-03T03:19:35.423Z,61.38
2023-03-03T03:22:04.766Z,62.35
2023-03-03T03:24:34.854Z,70.65
2023-03-03T03:27:06.104Z,62.30
2023-03-03T03:29:35.189Z,53.90
2023-03-03T03:32:02.685Z,59.40
2023-03-03T03:34:29.943Z,62.15
2023-03-03T03:36:58.875Z,60.95
2023-03-03T03:39:29.284Z,58.17
2023-03-03T03:41:57.190Z,54.35
2023-03-03T03:44:25.448Z,59.47
2023-03-03T03:46:53.973Z,58.95
2023-03-03T03:49:21.771Z,57.50
2023-03-03T03:51:50.901Z,49.55
2023-03-03T03:54:20.741Z,58.05
2023-03-03T03:56:49.315Z,62.25
2023-03-03T03:59:16.598Z,66.82
2023-03-03T04:01:43.709Z,66.25
2023-03-03T04:04:11.456Z,65.50
2023-03-03T04:06:39.275Z,55.65
2023-03-03T04:09:07.151Z,63.00
2023-03-03T04:11:34.579Z,60.33
2023-03-03T04:14:04.777Z,57.72
2023-03-03T04:16:32.621Z,51.78
2023-03-03T04:19:00.285Z,65.50
2023-03-03T04:21:28.199Z,60.60
2023-03-03T04:23:58.389Z,52.88
2023-03-03T04:26:27.460Z,56.88
2023-03-03T04:28:55.842Z,59.20
2023-03-03T04:31:25.287Z,53.05
2023-03-03T04:33:54.537Z,62.55
2023-03-03T04:36:23.299Z,49.25
2023-03-03T04:38:50.691Z,50.33
2023-03-03T04:41:19.409Z,60.45
2023-03-03T04:43:46.779Z,53.78
2023-03-03T04:46:14.448Z,52.95
2023-03-03T04:48:42.286Z,54.78
2023-03-03T04:51:10.570Z,54.20
2023-03-03T04:53:38.620Z,52.35
2023-03-03T04:56:07.784Z,56.38
2023-03-03T04:58:36.578Z,48.50
2023-03-03T05:01:04.135Z,50.90
2023-03-03T05:03:32.915Z,49.25
2023-03-03T05:06:00.335Z,51.85
2023-03-03T05:08:27.625Z,50.80
2023-03-03T05:10:55.146Z,62.08
2023-03-03T05:13:22.764Z,54.67
2023-03-03T05:15:55.912Z,58.10
2023-03-03T05:18:24.372Z,58.28
2023-03-03T05:20:52.528Z,50.97
2023-03-03T05:23:19.997Z,57.38
2023-03-03T05:25:51.025Z,59.42
2023-03-03T05:28:19.692Z,61.30
2023-03-03T05:30:47.221Z,70.28
2023-03-03T05:33:16.413Z,77.35
2023-03-03T05:35:44.054Z,70.97
2023-03-03T05:38:12.215Z,70.60
2023-03-03T05:40:40.542Z,71.40
2023-03-03T05:43:07.762Z,76.55
2023-03-03T05:45:35.485Z,72.00
2023-03-03T05:48:03.467Z,73.35
2023-03-03T05:50:30.876Z,78.82
2023-03-03T05:52:58.344Z,78.32
2023-03-03T05:55:25.808Z,73.95
2023-03-03T05:57:52.939Z,78.28
2023-03-03T06:00:20.491Z,79.07
2023-03-03T06:02:47.703Z,75.20
2023-03-03T06:05:14.898Z,80.57
2023-03-03T06:07:42.056Z,72.38
2023-03-03T06:10:10.140Z,72.53
2023-03-03T06:12:41.281Z,71.63
2023-03-03T06:15:10.547Z,80.38
2023-03-03T06:17:37.807Z,82.22
2023-03-03T06:20:05.502Z,76.68
2023-03-03T06:22:33.246Z,74.25
2023-03-03T06:25:00.578Z,72.90
2023-03-03T06:27:28.074Z,69.60
2023-03-03T06:29:55.253Z,68.78
2023-03-03T06:32:22.567Z,66.45
2023-03-03T06:34:50.590Z,72.82
2023-03-03T06:37:17.930Z,64.57
2023-03-03T06:39:45.319Z,69.28
2023-03-03T06:42:12.540Z,66.80
2023-03-03T06:44:39.756Z,65.95
2023-03-03T06:47:07.138Z,77.10
2023-03-03T06:49:34.364Z,72.85
2023-03-03T06:52:10.195Z,64.20
2023-03-03T06:54:37.585Z,55.38
2023-03-03T06:57:23.421Z,51.70
2023-03-03T06:59:53.963Z,51.80
2023-03-03T07:02:22.755Z,51.72
2023-03-03T07:04:50.282Z,66.85
2023-03-03T07:07:24.912Z,62.60
2023-03-03T07:09:57.063Z,64.28
2023-03-03T07:12:28.826Z,57.83
2023-03-03T07:15:13.234Z,57.50
2023-03-03T07:17:45.876Z,49.35
2023-03-03T07:22:52.472Z,42.53
2023-03-03T07:25:37.957Z,45.08
2023-03-03T07:28:24.998Z,44.33
2023-03-03T07:30:57.662Z,51.65
2023-03-03T07:33:44.095Z,58.03
2023-03-03T07:36:41.454Z,52.13
2023-03-03T07:39:40.414Z,53.22
2023-03-03T07:42:44.587Z,50.28
2023-03-03T07:45:35.160Z,47.42
2023-03-03T07:48:31.086Z,44.85
2023-03-03T07:51:05.796Z,48.40
2023-03-03T07:53:36.654Z,50.80
2023-03-03T07:56:16.353Z,53.00
2023-03-03T07:58:44.558Z,49.38
2023-03-03T08:01:27.448Z,44.05
2023-03-03T08:03:55.924Z,51.58
2023-03-03T08:06:24.064Z,53.65
2023-03-03T08:08:51.774Z,320.73
2023-03-03T08:11:19.341Z,126.60
2023-03-03T08:13:46.801Z,162.20
2023-03-03T08:16:14.122Z,96.25
2023-03-03T08:18:48.577Z,53.03
2023-03-03T08:21:20.693Z,48.55
2023-03-03T08:23:51.883Z,66.72
2023-03-03T08:26:23.644Z,51.08
2023-03-03T08:28:51.299Z,62.97
2023-03-03T08:31:31.145Z,110.07
2023-03-03T08:34:06.110Z,64.85
2023-03-03T08:36:34.809Z,46.42
2023-03-03T08:39:03.400Z,50.70
2023-03-03T08:41:30.652Z,53.58
2023-03-03T08:43:58.034Z,49.90
2023-03-03T08:46:25.326Z,47.13
2023-03-03T08:48:52.862Z,57.95
2023-03-03T08:51:20.836Z,52.70
2023-03-03T08:53:48.008Z,39.78
2023-03-03T08:56:15.163Z,44.45
2023-03-03T08:59:01.147Z,44.10
2023-03-03T09:01:29.250Z,37.20
2023-03-03T09:03:56.602Z,44.53
2023-03-03T09:06:23.917Z,37.35
2023-03-03T09:08:51.319Z,48.20
2023-03-03T09:11:27.904Z,42.03
2023-03-03T09:14:06.368Z,44.92
2023-03-03T09:16:41.946Z,44.30
2023-03-03T09:19:22.592Z,39.60
2023-03-03T09:21:54.950Z,58.60
2023-03-03T09:24:29.310Z,33.72
2023-03-03T09:26:59.154Z,50.78
2023-03-03T09:29:29.572Z,53.53
2023-03-03T09:32:25.123Z,40.42
2023-03-03T09:34:52.682Z,40.10
2023-03-03T09:37:27.106Z,39.67
2023-03-03T09:39:58.608Z,43.80
2023-03-03T09:42:43.859Z,43.10
2023-03-03T09:45:29.992Z,45.05
2023-03-03T09:48:09.497Z,40.75
2023-03-03T09:50:44.671Z,35.03
2023-03-03T09:53:32.891Z,40.97
2023-03-03T09:56:11.884Z,37.25
2023-03-03T09:59:02.922Z,34.35
2023-03-03T10:01:42.010Z,34.88
2023-03-03T10:04:42.648Z,31.35
2023-03-03T10:07:15.747Z,39.70
2023-03-03T10:09:58.108Z,33.65
2023-03-03T10:12:28.377Z,43.50
2023-03-03T10:15:16.482Z,35.67
2023-03-03T10:17:49.965Z,33.38
2023-03-03T10:20:50.681Z,30.45
2023-03-03T10:23:30.337Z,29.38
2023-03-03T10:26:19.182Z,38.95
2023-03-03T10:29:00.908Z,32.08
2023-03-03T10:31:52.680Z,32.67
2023-03-03T10:34:37.943Z,33.38
2023-03-03T10:37:30.901Z,38.35
2023-03-03T10:40:21.361Z,42.13
2023-03-03T10:42:54.474Z,36.72
2023-03-03T10:45:43.240Z,41.58
2023-03-03T10:48:39.416Z,44.55
2023-03-03T10:51:21.965Z,39.40
2023-03-03T10:54:01.213Z,36.80
2023-03-03T10:56:53.853Z,38.40
2023-03-03T10:59:56.243Z,39.42
2023-03-03T11:02:45.297Z,33.03
2023-03-03T11:05:41.710Z,35.72
2023-03-03T11:08:15.959Z,35.97
2023-03-03T11:10:52.620Z,33.47
2023-03-03T11:13:25.271Z,34.40
2023-03-03T11:16:11.096Z,38.30
2023-03-03T11:19:00.053Z,34.97
2023-03-03T11:21:49.404Z,34.50
2023-03-03T11:24:16.760Z,31.55
2023-03-03T11:27:03.588Z,28.38
2023-03-03T11:29:56.917Z,28.05
2023-03-03T11:32:49.381Z,26.17
2023-03-03T11:35:25.897Z,18.23
2023-03-03T11:38:20.749Z,26.88
2023-03-03T11:41:21.902Z,25.35
2023-03-03T11:43:56.854Z,24.63
2023-03-03T11:46:32.450Z,25.90
2023-03-03T11:49:23.212Z,19.77
2023-03-03T11:52:15.036Z,22.42
2023-03-03T11:55:03.486Z,23.00
2023-03-03T11:57:43.550Z,23.08
2023-03-03T12:00:41.428Z,21.48
2023-03-03T12:03:35.975Z,20.55
2023-03-03T12:06:19.898Z,21.42
2023-03-03T12:09:05.895Z,23.13
2023-03-03T12:11:38.975Z,21.80
2023-03-03T12:14:29.050Z,19.45
2023-03-03T12:17:16.414Z,19.88
2023-03-03T12:19:49.345Z,24.88
2023-03-03T12:22:57.774Z,23.63
2023-03-03T12:25:47.173Z,19.40
2023-03-03T12:28:30.035Z,21.75
2023-03-03T12:34:01.287Z,24.48
2023-03-03T12:36:47.388Z,24.58
2023-03-03T12:39:38.114Z,20.70
2023-03-03T12:42:38.711Z,20.45
2023-03-03T12:45:32.573Z,23.45
2023-03-03T12:48:10.291Z,23.02
2023-03-03T12:51:11.994Z,20.77
2023-03-03T12:54:03.420Z,21.77
2023-03-03T12:57:01.170Z,19.60
2023-03-03T12:59:53.018Z,22.58
2023-03-03T13:02:58.626Z,19.80
2023-03-03T13:05:40.882Z,20.42
2023-03-03T13:08:35.406Z,21.95
2023-03-03T13:11:29.181Z,20.52
2023-03-03T13:25:05.705Z,17.27
2023-03-03T13:27:42.661Z,22.80
2023-03-03T13:30:38.064Z,18.38
2023-03-03T13:33:25.751Z,21.65
2023-03-03T13:36:11.094Z,20.70
2023-03-03T13:38:42.703Z,19.40
2023-03-03T13:41:34.101Z,21.70
2023-03-03T13:44:20.419Z,19.45
2023-03-03T13:46:59.022Z,21.98
2023-03-03T13:49:47.679Z,21.35
2023-03-03T13:52:41.763Z,29.92
2023-03-03T13:55:18.448Z,20.58
2023-03-03T13:58:05.626Z,21.52
2023-03-03T14:01:19.741Z,21.88
2023-03-03T14:03:53.535Z,29.00
2023-03-03T14:06:25.485Z,23.63
2023-03-03T14:09:08.739Z,23.43
2023-03-03T14:11:52.254Z,25.45
2023-03-03T14:15:11.167Z,20.08
2023-03-03T14:17:50.591Z,22.85
2023-03-03T14:20:31.646Z,19.52
2023-03-03T14:23:10.401Z,22.50
2023-03-03T14:26:03.344Z,21.73
2023-03-03T14:28:45.797Z,29.38
2023-03-03T14:31:26.726Z,22.08
2023-03-03T14:34:10.173Z,20.42
2023-03-03T14:36:40.715Z,21.90
2023-03-03T14:39:34.234Z,22.38
2023-03-03T14:42:33.968Z,22.60
2023-03-03T14:45:28.591Z,21.58
2023-03-03T14:47:57.043Z,21.33
2023-03-03T14:50:33.383Z,18.60
2023-03-03T14:53:20.250Z,23.65
2023-03-03T14:55:50.510Z,21.20
2023-03-03T14:58:34.638Z,23.63
2023-03-03T15:01:15.822Z,21.90
2023-03-03T15:04:02.004Z,23.05
2023-03-03T15:06:33.287Z,24.05
2023-03-03T15:09:29.986Z,24.52
2023-03-03T15:12:07.641Z,20.98
2023-03-03T15:14:45.536Z,22.65
2023-03-03T15:17:24.105Z,22.25
2023-03-03T15:19:58.372Z,22.77
2023-03-03T15:22:43.830Z,27.63
2023-03-03T15:25:49.748Z,28.33
2023-03-03T15:28:23.033Z,24.58
2023-03-03T15:30:59.131Z,25.65
2023-03-03T15:33:56.067Z,24.40
2023-03-03T15:37:04.635Z,20.83
2023-03-03T15:39:48.389Z,22.63
2023-03-03T15:42:24.316Z,24.75
2023-03-03T15:45:06.804Z,27.38
2023-03-03T15:47:58.266Z,27.15
2023-03-03T15:50:59.264Z,26.40
2023-03-03T15:53:35.547Z,32.50
2023-03-03T15:56:12.804Z,33.00
2023-03-03T15:59:30.780Z,24.92
2023-03-03T16:02:19.277Z,26.88
2023-03-03T16:05:12.274Z,24.85
2023-03-03T16:08:14.280Z,26.88
2023-03-03T16:11:09.570Z,26.05
2023-03-03T16:14:12.548Z,27.67
2023-03-03T16:16:54.916Z,29.17
2023-03-03T16:19:45.387Z,31.55
2023-03-03T16:22:25.045Z,38.42
2023-03-03T16:25:34.548Z,39.53
2023-03-03T16:28:23.367Z,35.60
2023-03-03T16:31:11.982Z,35.40
2023-03-03T16:34:05.082Z,74.30
2023-03-03T16:37:06.563Z,57.28
2023-03-03T16:39:53.212Z,44.08
2023-03-03T16:42:30.880Z,43.83
2023-03-03T16:45:25.222Z,31.75
2023-03-03T16:47:58.795Z,33.35
2023-03-03T16:50:39.906Z,33.40
2023-03-03T16:53:44.718Z,33.53
2023-03-03T16:56:40.101Z,46.08
2023-03-03T16:59:25.513Z,80.65
2023-03-03T17:01:56.114Z,68.25
2023-03-03T17:04:46.023Z,49.08
2023-03-03T17:07:26.261Z,46.70
2023-03-03T17:10:38.777Z,47.22
2023-03-03T17:13:26.215Z,44.70
2023-03-03T17:16:49.777Z,42.00
2023-03-03T17:19:49.694Z,44.20
2023-03-03T17:22:24.491Z,44.50
2023-03-03T17:25:16.967Z,38.45
2023-03-03T17:27:49.224Z,41.05
2023-03-03T17:30:22.133Z,41.38
2023-03-03T17:33:04.534Z,43.95
2023-03-03T17:35:44.264Z,36.42
2023-03-03T17:38:41.005Z,35.00
2023-03-03T17:41:23.108Z,34.05
2023-03-03T17:43:53.109Z,48.90
2023-03-03T17:46:48.900Z,48.25
2023-03-03T17:49:35.157Z,48.50
2023-03-03T17:52:24.937Z,55.67
2023-03-03T17:55:07.993Z,55.83
2023-03-03T17:58:14.962Z,55.30
2023-03-03T18:01:04.271Z,49.78
2023-03-03T18:04:19.001Z,53.90
2023-03-03T18:07:05.197Z,55.05
2023-03-03T18:09:42.554Z,57.17
2023-03-03T18:12:20.310Z,55.20
2023-03-03T18:15:09.206Z,57.80
2023-03-03T18:17:59.989Z,48.75
2023-03-03T18:20:42.501Z,55.05
2023-03-03T18:23:42.114Z,56.38
2023-03-03T18:26:37.470Z,53.53
2023-03-03T18:29:17.313Z,61.42
2023-03-03T18:31:51.741Z,58.05
2023-03-03T18:34:22.948Z,64.82
2023-03-03T18:36:59.830Z,59.15
2023-03-03T18:39:46.234Z,68.07
2023-03-03T18:42:17.408Z,71.85
2023-03-03T18:44:48.226Z,69.40
2023-03-03T18:47:17.948Z,58.63
2023-03-03T18:50:06.245Z,67.30
2023-03-03T18:52:37.619Z,69.10
2023-03-03T18:55:11.463Z,75.50
2023-03-03T18:57:42.005Z,73.32
2023-03-03T19:00:25.407Z,66.68
2023-03-03T19:02:58.057Z,86.38
2023-03-03T19:08:05.333Z,79.55
2023-03-03T19:11:00.862Z,76.57
2023-03-03T19:13:35.259Z,84.70
2023-03-03T19:16:13.589Z,84.18
2023-03-03T19:18:44.384Z,87.05
2023-03-03T19:21:12.568Z,84.13
2023-03-03T19:24:01.406Z,85.80
2023-03-03T19:26:29.906Z,93.53
2023-03-03T19:29:14.292Z,93.30
2023-03-03T19:31:53.503Z,93.25
2023-03-03T19:34:28.276Z,83.30
2023-03-03T19:37:03.001Z,85.93
2023-03-03T19:39:58.062Z,89.28
2023-03-03T19:42:32.364Z,75.38
2023-03-03T19:45:29.744Z,87.05
2023-03-03T19:48:16.773Z,82.47
2023-03-03T19:51:15.711Z,89.72
2023-03-03T19:53:50.232Z,91.53
2023-03-03T19:56:51.112Z,92.88
2023-03-03T19:59:35.626Z,77.63
2023-03-03T20:02:27.268Z,83.90
2023-03-03T20:05:11.388Z,82.57
2023-03-03T20:08:01.467Z,84.97
2023-03-03T20:10:49.209Z,81.18
2023-03-03T20:13:21.006Z,93.35
2023-03-03T20:16:02.860Z,85.28
2023-03-03T20:18:41.567Z,82.35
2023-03-03T20:21:31.264Z,113.03
2023-03-03T20:24:06.947Z,86.30
2023-03-03T20:27:12.625Z,89.55
2023-03-03T20:30:04.498Z,86.32
2023-03-03T20:33:03.394Z,84.95
2023-03-03T20:36:02.143Z,87.60
2023-03-03T20:38:35.891Z,83.22
2023-03-03T20:41:18.243Z,75.25
2023-03-03T20:44:01.677Z,78.18
2023-03-03T20:46:54.823Z,111.80
2023-03-03T20:49:55.603Z,100.18
2023-03-03T20:52:40.551Z,101.57
2023-03-03T20:55:40.777Z,101.50
2023-03-03T20:58:26.618Z,84.05
2023-03-03T21:01:22.030Z,83.75
2023-03-03T21:03:51.975Z,80.75
2023-03-03T21:06:21.413Z,85.30
2023-03-03T21:08:54.839Z,81.05
2023-03-03T21:11:34.476Z,89.50
2023-03-03T21:14:17.149Z,73.78
2023-03-03T21:16:45.283Z,82.78
2023-03-03T21:19:30.720Z,91.22
2023-03-03T21:22:02.154Z,84.13
2023-03-03T21:25:01.555Z,100.45
2023-03-03T21:27:38.987Z,80.68
2023-03-03T21:30:13.633Z,84.25
2023-03-03T21:32:45.336Z,90.55
2023-03-03T21:35:22.377Z,84.75
2023-03-03T21:37:57.598Z,87.25
2023-03-03T21:40:28.988Z,89.43
2023-03-03T21:43:00.384Z,88.15
2023-03-03T21:45:28.166Z,90.40
2023-03-03T21:47:56.792Z,82.90
2023-03-03T21:50:24.701Z,82.72
2023-03-03T21:52:51.907Z,85.50
2023-03-03T21:55:18.955Z,88.50
2023-03-03T21:57:46.253Z,88.88
2023-03-03T22:00:13.682Z,86.28
2023-03-03T22:02:40.775Z,89.00
2023-03-03T22:05:08.120Z,84.88
2023-03-03T22:07:35.229Z,84.10
2023-03-03T22:10:03.116Z,75.93
2023-03-03T22:12:30.714Z,88.93
2023-03-03T22:14:57.732Z,88.97
2023-03-03T22:17:25.652Z,84.70
2023-03-03T22:19:53.172Z,87.28
2023-03-03T22:22:20.292Z,100.63
2023-03-03T22:24:47.428Z,91.65
2023-03-03T22:27:14.528Z,102.63
2023-03-03T22:29:41.579Z,98.82
2023-03-03T22:32:08.995Z,98.53
2023-03-03T22:34:36.349Z,93.88
2023-03-03T22:37:03.416Z,94.45
2023-03-03T22:39:30.549Z,90.35
2023-03-03T22:41:57.590Z,86.30
2023-03-03T22:44:24.752Z,83.07
2023-03-03T22:46:51.846Z,82.97
2023-03-03T22:49:18.929Z,95.90
2023-03-03T22:51:46.000Z,77.55
2023-03-03T22:54:13.099Z,99.10
2023-03-03T22:56:40.221Z,93.55
2023-03-03T22:59:07.401Z,92.78
2023-03-03T23:01:34.391Z,88.68
2023-03-03T23:04:01.584Z,93.68
2023-03-03T23:06:28.730Z,89.53
2023-03-03T23:08:56.021Z,91.38
2023-03-03T23:11:24.725Z,79.00
2023-03-03T23:13:51.849Z,97.95
2023-03-03T23:16:18.913Z,87.55
2023-03-03T23:18:46.437Z,84.47
2023-03-03T23:21:13.463Z,99.35
2023-03-03T23:23:40.693Z,97.22
2023-03-03T23:26:07.828Z,103.55
2023-03-03T23:28:34.874Z,113.32
2023-03-03T23:31:02.118Z,102.22
2023-03-03T23:33:29.507Z,97.05
2023-03-03T23:35:56.686Z,100.40
2023-03-03T23:38:23.857Z,97.00
2023-03-03T23:40:50.881Z,94.20
2023-03-03T23:43:18.108Z,98.05
2023-03-03T23:45:45.674Z,91.78
2023-03-03T23:48:12.842Z,98.43
2023-03-03T23:50:40.093Z,87.03
2023-03-03T23:53:08.542Z,98.22
2023-03-03T23:55:36.372Z,88.35
2023-03-03T23:58:03.934Z,96.30
